Time;durP1;ratioP1;P1;durP2;ratioP2;P2;SDS_P1;SDS_P2;PMS_P1;PMS_P2;Temp;Humidity;BMP_temperature;BMP_pressure;BME280_temperature;BME280_humidity;BME280_pressure;Samples;Min_cycle;Max_cycle;Signal;HPM_P1;HPM_P2
2023/12/08 00:01:27;;;;;;;13.70;5.90;;;2.90;98.00;;;;;;5014146;28;20452;-67
2023/12/08 00:03:55;;;;;;;13.73;5.90;;;2.80;98.00;;;;;;4997001;28;20459;-67
2023/12/08 00:06:22;;;;;;;13.83;5.90;;;2.90;98.00;;;;;;5014213;28;20456;-67
2023/12/08 00:08:52;;;;;;;15.77;7.27;;;3.00;98.00;;;;;;5013982;28;20988;-67
2023/12/08 00:11:19;;;;;;;19.00;6.80;;;3.00;98.00;;;;;;5014045;28;20522;-67
2023/12/08 00:13:46;;;;;;;13.47;5.77;;;3.00;98.00;;;;;;5014063;28;20496;-67
2023/12/08 00:16:13;;;;;;;15.33;6.40;;;2.90;98.00;;;;;;5014075;28;20550;-67
2023/12/08 00:18:41;;;;;;;13.97;6.00;;;3.00;98.00;;;;;;5013946;28;20461;-67
2023/12/08 00:21:08;;;;;;;14.17;6.13;;;3.00;98.00;;;;;;5013981;28;20926;-67
2023/12/08 00:23:37;;;;;;;11.97;5.33;;;3.10;98.00;;;;;;5013901;28;20550;-67
2023/12/08 00:26:06;;;;;;;14.97;6.47;;;3.10;98.00;;;;;;5013775;28;20937;-67
2023/12/08 00:28:33;;;;;;;17.37;6.80;;;3.00;98.00;;;;;;5013989;28;20486;-67
2023/12/08 00:31:00;;;;;;;19.60;7.57;;;3.00;98.00;;;;;;5013517;28;20451;-67
2023/12/08 00:33:28;;;;;;;13.87;6.83;;;3.00;98.00;;;;;;5013652;28;20484;-67
2023/12/08 00:35:55;;;;;;;17.53;6.90;;;2.90;98.00;;;;;;5013539;28;20456;-67
2023/12/08 00:38:22;;;;;;;13.43;6.50;;;3.10;98.00;;;;;;5013524;28;20460;-67
2023/12/08 00:40:50;;;;;;;16.60;6.83;;;3.20;98.00;;;;;;5013502;28;20518;-67
2023/12/08 00:43:18;;;;;;;16.60;6.03;;;3.10;98.00;;;;;;5013717;28;20535;-67
2023/12/08 00:45:46;;;;;;;17.47;6.90;;;3.10;98.00;;;;;;5013480;28;20458;-67
2023/12/08 00:48:13;;;;;;;18.43;7.70;;;3.10;98.00;;;;;;5013489;28;20464;-68
2023/12/08 00:50:40;;;;;;;14.20;6.30;;;3.00;98.00;;;;;;5013177;28;20475;-67
2023/12/08 00:53:07;;;;;;;17.33;7.03;;;2.90;98.00;;;;;;5013354;28;20559;-67
2023/12/08 00:55:34;;;;;;;18.00;6.10;;;2.80;98.00;;;;;;5013502;28;20456;-68
2023/12/08 00:58:01;;;;;;;17.53;6.53;;;2.80;98.00;;;;;;5013237;28;20457;-68
2023/12/08 01:00:29;;;;;;;17.23;6.10;;;2.80;98.00;;;;;;5013448;28;20810;-67
2023/12/08 01:02:56;;;;;;;16.67;6.87;;;2.90;98.00;;;;;;4995083;28;20461;-67
2023/12/08 01:05:24;;;;;;;15.53;6.17;;;2.90;98.00;;;;;;5012416;28;20825;-67
2023/12/08 01:07:51;;;;;;;15.20;6.97;;;2.90;98.00;;;;;;5012387;28;20463;-67
2023/12/08 01:10:18;;;;;;;17.03;6.90;;;3.00;98.00;;;;;;5012668;28;20985;-67
2023/12/08 01:12:45;;;;;;;22.33;6.90;;;3.10;98.00;;;;;;5013286;28;20457;-67
2023/12/08 01:15:12;;;;;;;14.40;5.57;;;3.00;98.00;;;;;;5013382;28;20570;-67
2023/12/08 01:17:41;;;;;;;20.90;7.83;;;2.90;98.00;;;;;;5013211;28;20491;-67
2023/12/08 01:20:09;;;;;;;20.83;7.60;;;2.90;98.00;;;;;;5013311;28;20836;-67
2023/12/08 01:22:37;;;;;;;17.37;6.90;;;2.90;98.00;;;;;;5013236;28;20451;-67
2023/12/08 01:25:06;;;;;;;16.07;6.40;;;3.00;98.00;;;;;;5013317;28;20490;-67
2023/12/08 01:27:33;;;;;;;17.47;7.00;;;3.00;98.00;;;;;;5013167;28;20449;-67
2023/12/08 01:30:00;;;;;;;16.20;7.03;;;3.00;98.00;;;;;;5012906;28;20452;-67
2023/12/08 01:32:27;;;;;;;18.30;6.43;;;3.10;98.00;;;;;;5012599;28;20472;-67
2023/12/08 01:34:55;;;;;;;18.87;7.27;;;3.10;98.00;;;;;;5010632;28;20479;-67
2023/12/08 01:37:22;;;;;;;17.67;6.40;;;3.10;98.00;;;;;;5012611;28;20459;-67
2023/12/08 01:39:49;;;;;;;15.13;6.30;;;3.10;98.00;;;;;;5012710;28;20977;-67
2023/12/08 01:42:16;;;;;;;14.93;6.60;;;3.00;98.00;;;;;;5012626;28;20451;-67
2023/12/08 01:44:43;;;;;;;14.77;6.03;;;3.00;98.00;;;;;;5012400;28;20447;-67
2023/12/08 01:47:11;;;;;;;14.67;6.50;;;3.00;98.00;;;;;;5011943;28;20454;-67
2023/12/08 01:49:39;;;;;;;17.30;6.60;;;3.00;98.00;;;;;;5012444;28;20461;-67
2023/12/08 01:52:09;;;;;;;15.57;6.53;;;3.10;98.00;;;;;;5012448;28;20453;-67
2023/12/08 01:54:37;;;;;;;17.50;6.30;;;3.20;98.00;;;;;;5012301;28;21064;-67
2023/12/08 01:57:05;;;;;;;15.37;7.13;;;3.10;98.00;;;;;;5011964;28;20455;-67
2023/12/08 01:59:32;;;;;;;16.43;6.80;;;3.00;98.00;;;;;;5012324;28;20509;-67
2023/12/08 02:01:59;;;;;;;15.47;7.00;;;2.90;98.00;;;;;;5012254;28;20453;-67
2023/12/08 02:04:26;;;;;;;15.97;5.90;;;3.00;98.00;;;;;;5012183;28;20947;-67
2023/12/08 02:06:55;;;;;;;14.27;6.27;;;3.10;98.00;;;;;;5012006;28;20580;-67
2023/12/08 02:09:24;;;;;;;15.50;6.50;;;3.20;98.00;;;;;;5012541;28;20539;-67
2023/12/08 02:11:51;;;;;;;15.57;6.67;;;3.10;98.00;;;;;;5012042;28;20482;-67
2023/12/08 02:14:18;;;;;;;14.37;6.40;;;3.00;98.00;;;;;;5011103;28;20480;-67
2023/12/08 02:16:54;;;;;;;14.77;6.23;;;3.00;98.00;;;;;;5011974;28;20552;-67
2023/12/08 02:19:21;;;;;;;15.83;5.90;;;3.00;98.00;;;;;;5012258;28;20443;-67
2023/12/08 02:21:51;;;;;;;13.10;5.63;;;3.10;98.00;;;;;;5012025;28;20882;-67
2023/12/08 02:24:20;;;;;;;15.07;6.10;;;3.00;98.00;;;;;;5011807;28;20469;-67
2023/12/08 02:26:48;;;;;;;16.57;6.37;;;3.00;98.00;;;;;;5011893;28;20461;-67
2023/12/08 02:29:16;;;;;;;16.90;6.50;;;3.00;98.00;;;;;;5012148;28;20457;-67
2023/12/08 02:31:52;;;;;;;12.63;5.77;;;2.90;98.00;;;;;;4994259;28;20458;-67
2023/12/08 02:34:20;;;;;;;15.13;6.10;;;2.90;98.00;;;;;;5011697;28;20488;-67
2023/12/08 02:36:49;;;;;;;13.87;6.53;;;3.10;98.00;;;;;;5011839;28;20456;-67
2023/12/08 02:39:18;;;;;;;18.33;6.37;;;3.00;98.00;;;;;;5012090;28;20455;-67
2023/12/08 02:41:47;;;;;;;18.50;6.10;;;2.90;98.00;;;;;;5011833;28;20822;-67
2023/12/08 02:44:17;;;;;;;17.47;6.90;;;2.90;98.00;;;;;;5011926;28;20461;-67
2023/12/08 02:46:44;;;;;;;17.20;6.97;;;3.00;98.00;;;;;;5011778;28;20500;-67
2023/12/08 02:49:12;;;;;;;18.43;6.77;;;3.00;98.00;;;;;;5011893;28;20450;-67
2023/12/08 02:51:39;;;;;;;21.40;7.70;;;3.10;98.00;;;;;;5011282;28;20461;-67
2023/12/08 02:54:06;;;;;;;18.70;7.07;;;3.10;98.00;;;;;;5011769;28;20490;-67
2023/12/08 02:56:33;;;;;;;17.53;7.43;;;3.20;98.00;;;;;;5011563;28;20450;-67
2023/12/08 02:59:04;;;;;;;18.23;7.03;;;3.10;98.00;;;;;;5011865;28;20517;-67
2023/12/08 03:01:32;;;;;;;15.80;6.47;;;3.00;98.00;;;;;;4994276;28;20452;-67
2023/12/08 03:03:59;;;;;;;14.43;6.60;;;3.00;98.00;;;;;;5011896;28;20460;-67
2023/12/08 03:06:26;;;;;;;16.40;6.90;;;2.90;98.00;;;;;;5011875;28;20457;-67
2023/12/08 03:08:53;;;;;;;14.00;5.90;;;2.90;98.00;;;;;;5011805;28;20465;-67
2023/12/08 03:11:20;;;;;;;15.43;7.20;;;2.90;98.00;;;;;;5011873;28;20457;-67
2023/12/08 03:13:47;;;;;;;15.50;7.47;;;2.80;98.00;;;;;;5011754;28;20457;-67
2023/12/08 03:16:16;;;;;;;16.00;5.97;;;2.80;98.00;;;;;;5011796;28;20457;-67
2023/12/08 03:18:43;;;;;;;14.57;6.50;;;2.80;98.00;;;;;;5011692;28;20479;-67
2023/12/08 03:21:20;;;;;;;12.60;5.83;;;2.90;98.00;;;;;;4994197;28;20461;-67
2023/12/08 03:23:47;;;;;;;14.83;6.03;;;2.90;98.00;;;;;;5011600;28;21005;-67
2023/12/08 03:26:14;;;;;;;20.53;7.37;;;2.80;98.00;;;;;;5014246;28;20591;-67
2023/12/08 03:28:42;;;;;;;15.30;6.63;;;2.70;98.00;;;;;;5014831;28;20455;-67
2023/12/08 03:31:24;;;;;;;18.60;7.03;;;2.70;98.00;;;;;;5015157;28;20808;-67
2023/12/08 03:33:52;;;;;;;16.57;6.57;;;2.70;98.00;;;;;;5014859;28;20557;-67
2023/12/08 03:36:27;;;;;;;16.27;6.37;;;2.80;98.00;;;;;;5014840;28;20458;-67
2023/12/08 03:38:54;;;;;;;23.13;7.77;;;2.90;98.00;;;;;;5014795;28;20448;-67
2023/12/08 03:41:21;;;;;;;13.87;5.80;;;2.90;98.00;;;;;;5014833;28;20452;-67
2023/12/08 03:43:49;;;;;;;15.60;6.27;;;3.00;98.00;;;;;;5014792;28;20551;-67
2023/12/08 03:46:16;;;;;;;16.33;6.60;;;3.10;98.00;;;;;;5014830;28;20491;-67
2023/12/08 03:48:45;;;;;;;17.20;6.70;;;3.10;98.00;;;;;;5014758;28;20479;-67
2023/12/08 03:51:13;;;;;;;13.87;5.73;;;3.20;98.00;;;;;;5014612;28;20521;-67
2023/12/08 03:53:40;;;;;;;13.87;6.33;;;3.20;98.00;;;;;;5014566;28;20468;-67
2023/12/08 03:56:08;;;;;;;13.37;6.20;;;3.10;98.00;;;;;;5014518;28;20931;-67
2023/12/08 03:58:42;;;;;;;16.60;6.47;;;3.10;98.00;;;;;;5014652;28;20795;-67
2023/12/08 04:01:16;;;;;;;11.43;5.63;;;3.20;98.00;;;;;;5014460;28;20449;-67
2023/12/08 04:03:47;;;;;;;13.33;6.00;;;3.10;98.00;;;;;;5014597;28;20461;-67
2023/12/08 04:06:14;;;;;;;11.80;5.67;;;3.10;98.00;;;;;;5014446;28;20481;-67
2023/12/08 04:08:43;;;;;;;14.60;5.70;;;3.00;98.00;;;;;;5014289;28;20518;-67
2023/12/08 04:11:11;;;;;;;12.17;6.00;;;2.90;98.00;;;;;;4997129;28;20460;-67
2023/12/08 04:13:39;;;;;;;15.70;6.40;;;2.80;98.00;;;;;;5014203;28;20459;-67
2023/12/08 04:16:08;;;;;;;14.00;6.30;;;2.90;98.00;;;;;;5014415;28;20488;-67
2023/12/08 04:18:36;;;;;;;16.03;6.20;;;2.80;98.00;;;;;;5014158;28;20519;-67
2023/12/08 04:21:04;;;;;;;12.40;5.00;;;2.70;98.00;;;;;;5014147;28;20465;-67
2023/12/08 04:23:31;;;;;;;18.17;6.40;;;2.70;98.00;;;;;;5014234;28;20459;-67
2023/12/08 04:25:58;;;;;;;17.10;6.03;;;2.70;98.00;;;;;;5014204;28;20640;-67
2023/12/08 04:28:26;;;;;;;13.53;5.27;;;2.70;98.00;;;;;;5014014;28;20457;-67
2023/12/08 04:30:53;;;;;;;18.67;6.00;;;2.70;98.00;;;;;;5013785;28;20464;-67
2023/12/08 04:33:20;;;;;;;13.70;5.80;;;2.70;98.00;;;;;;5013895;28;20923;-67
2023/12/08 04:35:48;;;;;;;13.03;5.60;;;2.70;98.00;;;;;;5013476;28;20483;-67
2023/12/08 04:38:17;;;;;;;13.63;6.30;;;2.60;98.00;;;;;;5013221;28;20444;-67
2023/12/08 04:40:44;;;;;;;13.70;5.70;;;2.70;98.00;;;;;;5013825;28;20451;-67
2023/12/08 04:43:11;;;;;;;13.83;6.20;;;2.70;98.00;;;;;;5013855;28;20463;-67
2023/12/08 04:45:38;;;;;;;14.87;5.93;;;2.70;98.00;;;;;;4996230;28;20472;-67
2023/12/08 04:48:06;;;;;;;17.57;6.10;;;2.80;98.00;;;;;;5013736;28;20930;-67
2023/12/08 04:50:33;;;;;;;15.10;6.33;;;2.80;98.00;;;;;;5013984;28;20454;-67
2023/12/08 04:53:00;;;;;;;13.17;6.13;;;2.90;98.00;;;;;;5013664;28;20457;-67
2023/12/08 04:55:28;;;;;;;15.60;6.50;;;2.80;98.00;;;;;;5013672;28;20494;-67
2023/12/08 04:57:55;;;;;;;14.40;5.43;;;3.00;98.00;;;;;;5013628;28;20468;-67
2023/12/08 05:00:24;;;;;;;19.27;7.83;;;2.90;98.00;;;;;;5014056;28;20473;-67
2023/12/08 05:02:51;;;;;;;16.07;6.80;;;2.90;98.00;;;;;;5013713;28;20459;-67
2023/12/08 05:05:18;;;;;;;17.23;7.00;;;2.80;98.00;;;;;;5013516;28;20519;-67
2023/12/08 05:07:48;;;;;;;23.70;8.60;;;2.90;98.00;;;;;;5013219;28;20862;-67
2023/12/08 05:10:16;;;;;;;19.67;7.87;;;2.90;98.00;;;;;;5013393;28;20462;-67
2023/12/08 05:12:45;;;;;;;19.97;8.17;;;3.10;98.00;;;;;;5013149;28;20460;-67
2023/12/08 05:15:12;;;;;;;20.40;7.97;;;3.00;98.00;;;;;;5012877;28;20490;-67
2023/12/08 05:17:40;;;;;;;20.73;8.07;;;2.90;98.00;;;;;;4995463;28;20806;-67
2023/12/08 05:20:08;;;;;;;17.90;7.97;;;2.90;98.00;;;;;;5013143;28;20468;-67
2023/12/08 05:22:36;;;;;;;18.27;7.50;;;3.00;98.00;;;;;;5012814;28;20808;-67
2023/12/08 05:25:03;;;;;;;18.80;8.10;;;3.20;98.00;;;;;;5012929;28;20930;-67
2023/12/08 05:27:29;;;;;;;21.20;7.70;;;3.20;98.00;;;;;;5012732;28;20503;-67
2023/12/08 05:29:58;;;;;;;16.10;7.37;;;3.20;98.00;;;;;;5012749;28;20491;-67
2023/12/08 05:32:25;;;;;;;18.83;7.20;;;3.30;98.00;;;;;;5012882;28;20853;-67
2023/12/08 05:34:53;;;;;;;21.97;7.20;;;3.20;98.00;;;;;;5012697;28;20545;-67
2023/12/08 05:37:20;;;;;;;16.10;7.07;;;3.10;98.00;;;;;;5012670;28;20456;-67
2023/12/08 05:39:48;;;;;;;17.77;7.07;;;3.10;98.00;;;;;;5012801;28;20452;-67
2023/12/08 05:42:15;;;;;;;15.90;6.97;;;3.00;98.00;;;;;;5012762;28;20459;-67
2023/12/08 05:44:42;;;;;;;14.27;7.07;;;3.00;98.00;;;;;;5012621;28;20477;-67
2023/12/08 05:47:11;;;;;;;16.33;6.77;;;3.00;98.00;;;;;;5012658;28;20829;-67
2023/12/08 05:49:38;;;;;;;15.70;6.20;;;3.00;98.00;;;;;;5012412;28;20449;-67
2023/12/08 05:52:06;;;;;;;24.87;8.87;;;3.10;98.00;;;;;;5012313;28;20462;-67
2023/12/08 05:54:33;;;;;;;19.60;7.80;;;3.00;98.00;;;;;;5012305;28;20462;-67
2023/12/08 05:57:00;;;;;;;17.07;7.10;;;3.00;98.00;;;;;;5012090;28;21240;-67
2023/12/08 05:59:27;;;;;;;15.87;6.70;;;2.90;98.00;;;;;;5012360;28;20479;-67
2023/12/08 06:01:55;;;;;;;15.47;6.97;;;3.00;98.00;;;;;;5011920;28;20462;-67
2023/12/08 06:04:23;;;;;;;21.30;8.23;;;3.20;98.00;;;;;;5011445;28;20944;-67
2023/12/08 06:06:51;;;;;;;16.63;6.73;;;3.10;98.00;;;;;;5011482;28;20458;-67
2023/12/08 06:09:19;;;;;;;22.10;7.30;;;3.00;98.00;;;;;;5012213;28;20456;-67
2023/12/08 06:11:46;;;;;;;15.40;6.67;;;2.90;98.00;;;;;;5012207;28;20453;-67
2023/12/08 06:14:13;;;;;;;14.93;6.40;;;2.90;98.00;;;;;;5012348;28;20453;-67
2023/12/08 06:16:41;;;;;;;21.73;7.20;;;2.90;98.00;;;;;;5012060;28;20497;-67
2023/12/08 06:19:09;;;;;;;17.40;7.20;;;2.90;98.00;;;;;;4994905;28;20843;-67
2023/12/08 06:21:38;;;;;;;15.80;6.60;;;2.80;98.00;;;;;;5010708;28;20468;-67
2023/12/08 06:24:05;;;;;;;14.43;6.27;;;2.80;98.00;;;;;;5012102;28;20874;-67
2023/12/08 06:26:33;;;;;;;20.23;7.53;;;3.00;98.00;;;;;;5012092;28;20451;-67
2023/12/08 06:29:00;;;;;;;19.07;6.83;;;3.00;98.00;;;;;;5012015;28;20457;-66
2023/12/08 06:31:27;;;;;;;19.17;7.90;;;3.00;98.00;;;;;;5011920;28;20876;-67
2023/12/08 06:33:55;;;;;;;20.90;7.57;;;3.00;98.00;;;;;;5011963;28;20456;-67
2023/12/08 06:36:23;;;;;;;25.10;7.63;;;3.10;98.00;;;;;;5011918;28;20493;-67
2023/12/08 06:38:53;;;;;;;18.43;7.07;;;3.00;98.00;;;;;;5011983;28;20472;-67
2023/12/08 06:41:21;;;;;;;20.00;7.43;;;3.00;98.00;;;;;;5012105;28;20569;-67
2023/12/08 06:43:49;;;;;;;20.00;8.20;;;2.90;98.00;;;;;;5011654;28;20461;-67
2023/12/08 06:46:16;;;;;;;19.70;7.83;;;2.90;98.00;;;;;;5011951;28;20456;-67
2023/12/08 06:48:43;;;;;;;19.80;7.53;;;2.90;98.00;;;;;;5012055;28;20862;-67
2023/12/08 06:51:11;;;;;;;19.87;6.70;;;3.00;98.00;;;;;;5011823;28;20461;-66
2023/12/08 06:53:38;;;;;;;18.77;7.87;;;3.00;98.00;;;;;;5011936;28;20967;-66
2023/12/08 06:56:09;;;;;;;18.03;7.33;;;3.00;98.00;;;;;;5011847;28;20542;-66
2023/12/08 06:58:37;;;;;;;21.20;8.90;;;3.10;98.00;;;;;;5012210;28;20502;-67
2023/12/08 07:01:04;;;;;;;22.63;7.70;;;3.10;98.00;;;;;;4997423;28;20456;-66
2023/12/08 07:03:31;;;;;;;18.03;7.67;;;3.10;98.00;;;;;;5015643;28;20848;-61
2023/12/08 07:05:59;;;;;;;17.10;8.07;;;3.10;98.00;;;;;;4998354;28;20520;-61
2023/12/08 07:08:26;;;;;;;22.10;8.00;;;3.00;98.00;;;;;;5015614;28;20456;-61
2023/12/08 07:10:53;;;;;;;21.23;8.10;;;2.90;98.00;;;;;;5015377;28;20515;-61
2023/12/08 07:13:23;;;;;;;19.30;7.47;;;2.90;98.00;;;;;;5015357;28;20544;-61
2023/12/08 07:15:51;;;;;;;18.97;7.97;;;3.00;98.00;;;;;;5015531;28;20510;-61
2023/12/08 07:18:18;;;;;;;17.47;7.90;;;3.10;98.00;;;;;;5015422;28;20456;-61
2023/12/08 07:20:45;;;;;;;22.40;7.93;;;3.10;98.00;;;;;;5015375;28;20467;-61
2023/12/08 07:23:12;;;;;;;18.97;8.27;;;3.20;98.00;;;;;;5015131;28;20514;-61
2023/12/08 07:25:39;;;;;;;23.33;8.60;;;3.30;98.00;;;;;;5015442;28;20451;-61
2023/12/08 07:28:06;;;;;;;25.83;8.87;;;3.20;98.00;;;;;;5015203;28;20468;-61
2023/12/08 07:30:35;;;;;;;7.77;3.97;;;3.10;98.00;;;;;;5015138;28;21088;-62
2023/12/08 07:33:03;;;;;;;8.43;3.53;;;3.50;98.00;;;;;;4997364;28;20456;-62
2023/12/08 07:35:31;;;;;;;14.40;6.17;;;5.30;98.00;;;;;;4997877;28;20571;-61
2023/12/08 07:37:58;;;;;;;20.57;8.63;;;6.60;98.00;;;;;;5015056;28;20463;-61
2023/12/08 07:40:24;;;;;;;21.77;8.23;;;6.70;98.00;;;;;;4997676;28;20942;-61
2023/12/08 07:42:51;;;;;;;19.90;8.30;;;6.40;98.00;;;;;;5014848;28;20520;-61
2023/12/08 07:45:18;;;;;;;22.77;8.60;;;6.00;98.00;;;;;;5014942;28;20456;-61
2023/12/08 07:47:47;;;;;;;20.37;8.60;;;5.60;98.00;;;;;;5014852;28;20463;-61
2023/12/08 07:50:15;;;;;;;20.60;8.10;;;5.10;98.00;;;;;;5015083;28;20541;-61
2023/12/08 07:52:43;;;;;;;18.07;7.30;;;4.70;98.00;;;;;;5014818;28;20544;-61
2023/12/08 07:55:10;;;;;;;20.97;8.57;;;4.40;98.00;;;;;;5014805;28;20885;-61
2023/12/08 07:57:37;;;;;;;19.37;8.40;;;4.30;98.00;;;;;;5014750;28;20459;-61
2023/12/08 08:00:06;;;;;;;22.70;8.40;;;4.10;98.00;;;;;;5014967;28;20956;-61
2023/12/08 08:02:33;;;;;;;21.33;7.97;;;4.00;98.00;;;;;;5014663;28;20566;-61
2023/12/08 08:05:02;;;;;;;20.30;8.20;;;4.00;98.00;;;;;;5014819;28;20460;-61
2023/12/08 08:07:29;;;;;;;25.43;8.93;;;4.00;98.00;;;;;;4997240;28;20482;-61
2023/12/08 08:09:56;;;;;;;23.77;9.40;;;3.90;98.00;;;;;;5014655;28;20459;-61
2023/12/08 08:12:23;;;;;;;18.80;6.77;;;3.90;98.00;;;;;;4996064;28;20458;-61
2023/12/08 08:14:50;;;;;;;16.27;7.90;;;3.90;98.00;;;;;;5014679;28;20449;-63
2023/12/08 08:17:18;;;;;;;25.33;8.30;;;4.00;98.00;;;;;;5014495;28;20491;-63
2023/12/08 08:19:45;;;;;;;17.83;8.10;;;4.30;98.00;;;;;;5014464;28;20544;-62
2023/12/08 08:22:14;;;;;;;22.73;8.50;;;4.20;98.00;;;;;;5014474;28;20816;-61
2023/12/08 08:24:41;;;;;;;22.10;8.33;;;3.90;98.00;;;;;;5014699;28;20553;-61
2023/12/08 08:27:09;;;;;;;23.57;8.87;;;3.80;98.00;;;;;;5014366;28;20928;-62
2023/12/08 08:29:36;;;;;;;24.17;9.30;;;3.70;98.00;;;;;;5014397;28;20458;-61
2023/12/08 08:32:04;;;;;;;23.47;8.33;;;3.70;98.00;;;;;;5014119;28;20528;-62
2023/12/08 08:34:31;;;;;;;16.23;8.23;;;3.60;98.00;;;;;;5014167;28;20462;-61
2023/12/08 08:36:58;;;;;;;22.20;8.37;;;3.50;98.00;;;;;;5014110;28;20486;-61
2023/12/08 08:39:27;;;;;;;20.13;8.53;;;3.30;98.00;;;;;;5014263;28;20459;-62
2023/12/08 08:41:55;;;;;;;20.60;7.77;;;3.20;98.00;;;;;;5013905;28;20530;-61
2023/12/08 08:44:22;;;;;;;19.33;8.20;;;3.20;98.00;;;;;;4997164;28;20867;-61
2023/12/08 08:46:49;;;;;;;20.17;8.40;;;3.30;98.00;;;;;;5013834;28;20467;-61
2023/12/08 08:49:17;;;;;;;21.90;8.67;;;3.40;98.00;;;;;;5013869;28;20512;-61
2023/12/08 08:51:45;;;;;;;21.40;8.50;;;3.40;98.00;;;;;;5013985;28;20819;-62
2023/12/08 08:54:13;;;;;;;20.43;8.80;;;3.40;98.00;;;;;;5014164;28;20820;-62
2023/12/08 08:56:41;;;;;;;22.90;8.20;;;3.40;98.00;;;;;;5013466;28;20536;-61
2023/12/08 08:59:09;;;;;;;19.57;8.60;;;3.50;98.00;;;;;;5013645;28;20997;-61
2023/12/08 09:01:38;;;;;;;20.83;8.20;;;3.50;98.00;;;;;;5013568;28;20461;-61
2023/12/08 09:04:05;;;;;;;25.97;9.43;;;3.50;98.00;;;;;;5013568;28;21105;-62
2023/12/08 09:06:33;;;;;;;18.17;7.70;;;3.60;98.00;;;;;;5013194;28;20853;-61
2023/12/08 09:09:02;;;;;;;26.50;9.60;;;3.70;98.00;;;;;;4995844;28;20488;-62
2023/12/08 09:11:29;;;;;;;22.53;9.07;;;3.70;98.00;;;;;;4992245;28;20465;-61
2023/12/08 09:13:58;;;;;;;21.87;8.03;;;3.80;98.00;;;;;;4993553;28;20455;-62
2023/12/08 09:16:28;;;;;;;24.77;9.27;;;3.80;98.00;;;;;;4993364;28;20528;-61
2023/12/08 09:18:54;;;;;;;19.40;7.63;;;3.90;98.00;;;;;;4993357;28;20475;-62
2023/12/08 09:21:23;;;;;;;19.53;8.43;;;3.80;98.00;;;;;;5012427;28;20461;-62
2023/12/08 09:23:51;;;;;;;15.57;7.50;;;4.00;98.00;;;;;;4995011;28;20506;-61
2023/12/08 09:26:19;;;;;;;30.03;8.50;;;4.00;98.00;;;;;;5013213;28;20494;-62
2023/12/08 09:28:46;;;;;;;24.10;9.00;;;4.00;98.00;;;;;;5012856;28;20466;-62
2023/12/08 09:31:30;;;;;;;22.50;8.53;;;4.00;98.00;;;;;;5012360;28;20536;-61
2023/12/08 09:33:58;;;;;;;22.07;8.03;;;3.90;98.00;;;;;;4990964;28;20470;-62
2023/12/08 09:36:27;;;;;;;25.57;10.13;;;4.00;98.00;;;;;;4992778;28;20489;-62
2023/12/08 09:38:55;;;;;;;20.90;8.63;;;4.10;98.00;;;;;;4960435;28;20447;-62
2023/12/08 09:41:25;;;;;;;17.57;7.27;;;3.90;98.00;;;;;;4993091;28;21011;-61
2023/12/08 09:44:00;;;;;;;34.83;12.77;;;3.80;98.00;;;;;;4975920;28;20940;-62
2023/12/08 09:46:30;;;;;;;28.67;11.47;;;3.80;98.00;;;;;;4992989;28;20462;-61
2023/12/08 09:48:59;;;;;;;27.80;10.20;;;3.90;98.00;;;;;;4992980;28;20875;-62
2023/12/08 09:51:28;;;;;;;23.40;8.77;;;3.90;98.00;;;;;;4976014;28;20449;-62
2023/12/08 09:53:55;;;;;;;19.43;7.90;;;4.00;98.00;;;;;;4992847;28;20510;-62
2023/12/08 09:56:24;;;;;;;21.03;8.00;;;4.00;98.00;;;;;;4992485;28;20526;-62
2023/12/08 09:58:52;;;;;;;24.70;10.03;;;4.00;98.00;;;;;;4992763;28;20547;-62
2023/12/08 10:01:20;;;;;;;27.33;9.40;;;4.00;98.00;;;;;;4992339;28;20452;-62
2023/12/08 10:03:49;;;;;;;26.10;8.77;;;4.00;98.00;;;;;;4992970;28;20485;-61
2023/12/08 10:06:16;;;;;;;23.47;9.67;;;4.10;98.00;;;;;;4974950;28;20458;-62
2023/12/08 10:08:44;;;;;;;25.10;9.63;;;4.10;98.00;;;;;;4992819;28;20810;-66
2023/12/08 10:11:11;;;;;;;24.87;10.03;;;4.20;98.00;;;;;;4993065;28;20465;-62
2023/12/08 10:13:38;;;;;;;23.10;9.53;;;4.20;98.00;;;;;;4992634;28;20459;-62
2023/12/08 10:16:07;;;;;;;42.50;18.00;;;4.60;98.00;;;;;;4992624;28;20498;-61
2023/12/08 10:18:34;;;;;;;33.87;13.77;;;4.50;98.00;;;;;;4959360;28;20502;-62
2023/12/08 10:21:16;;;;;;;32.57;11.50;;;4.40;98.00;;;;;;4992911;28;20544;-62
2023/12/08 10:23:44;;;;;;;31.67;11.60;;;4.40;98.00;;;;;;4992461;28;20459;-61
2023/12/08 10:26:14;;;;;;;31.07;11.03;;;4.40;98.00;;;;;;4992921;28;20454;-62
2023/12/08 10:28:42;;;;;;;22.77;9.87;;;4.30;98.00;;;;;;4992398;28;20503;-62
2023/12/08 10:31:10;;;;;;;28.70;11.50;;;4.40;98.00;;;;;;4992581;28;20460;-62
2023/12/08 10:33:37;;;;;;;31.27;11.17;;;4.50;98.00;;;;;;4992545;28;20460;-61
2023/12/08 10:36:05;;;;;;;25.23;10.77;;;4.70;98.00;;;;;;4991757;28;20460;-62
2023/12/08 10:38:34;;;;;;;28.03;11.40;;;4.70;98.00;;;;;;4992543;28;20962;-62
2023/12/08 10:41:01;;;;;;;29.07;10.67;;;4.90;98.00;;;;;;4992494;28;20467;-62
2023/12/08 10:43:30;;;;;;;31.20;10.50;;;4.80;98.00;;;;;;4991949;28;20464;-62
2023/12/08 10:45:57;;;;;;;24.90;10.60;;;4.90;98.00;;;;;;4992199;28;20945;-62
2023/12/08 10:48:25;;;;;;;22.77;9.10;;;5.00;98.00;;;;;;4992044;28;20510;-62
2023/12/08 10:50:53;;;;;;;23.70;9.07;;;5.00;98.00;;;;;;4992346;28;21032;-62
2023/12/08 10:53:22;;;;;;;23.60;9.37;;;5.00;98.00;;;;;;4992012;28;20460;-62
2023/12/08 10:55:53;;;;;;;26.27;9.60;;;4.80;98.00;;;;;;4992039;28;20465;-62
2023/12/08 10:58:22;;;;;;;19.07;9.13;;;4.80;98.00;;;;;;4991909;28;20867;-62
2023/12/08 11:00:53;;;;;;;22.57;9.23;;;4.90;98.00;;;;;;4991453;28;20556;-62
2023/12/08 11:03:22;;;;;;;20.60;7.70;;;4.90;98.00;;;;;;4991339;28;20510;-62
2023/12/08 11:05:58;;;;;;;22.93;9.20;;;4.90;98.00;;;;;;4991732;28;20477;-62
2023/12/08 11:08:26;;;;;;;20.40;8.87;;;4.90;98.00;;;;;;4974619;28;20454;-61
2023/12/08 11:11:01;;;;;;;28.47;9.80;;;5.00;98.00;;;;;;4992110;28;20805;-62
2023/12/08 11:13:29;;;;;;;27.10;10.57;;;5.10;98.00;;;;;;4992101;28;20453;-62
2023/12/08 11:16:17;;;;;;;20.50;8.30;;;5.10;98.00;;;;;;4991890;28;20456;-62
2023/12/08 11:18:46;;;;;;;24.70;9.30;;;5.00;98.00;;;;;;4991899;28;20458;-61
2023/12/08 11:21:13;;;;;;;17.73;8.93;;;5.10;98.00;;;;;;4992152;28;20547;-62
2023/12/08 11:23:42;;;;;;;21.50;8.40;;;5.10;98.00;;;;;;4991663;28;20455;-61
2023/12/08 11:26:23;;;;;;;20.50;8.83;;;5.10;98.00;;;;;;4991754;28;20457;-62
2023/12/08 11:29:02;;;;;;;20.60;9.10;;;5.20;98.00;;;;;;4991943;28;20469;-62
2023/12/08 11:31:37;;;;;;;25.00;9.23;;;5.20;98.00;;;;;;4991657;28;20464;-62
2023/12/08 11:34:12;;;;;;;27.43;9.70;;;5.40;98.00;;;;;;4991902;28;20472;-62
2023/12/08 11:36:44;;;;;;;31.43;13.43;;;5.50;98.00;;;;;;4991845;28;20551;-62
2023/12/08 11:39:41;;;;;;;22.43;9.53;;;5.50;98.00;;;;;;4991966;28;20490;-62
2023/12/08 11:42:10;;;;;;;28.80;10.93;;;5.60;98.00;;;;;;4991281;28;20551;-62
2023/12/08 11:44:38;;;;;;;21.07;9.60;;;5.60;98.00;;;;;;4991959;28;20873;-62
2023/12/08 11:47:08;;;;;;;23.77;10.00;;;5.60;98.00;;;;;;4994510;28;20468;-62
2023/12/08 11:49:37;;;;;;;24.77;9.23;;;5.50;98.00;;;;;;4995500;28;20448;-62
2023/12/08 11:52:15;;;;;;;19.67;9.13;;;5.50;98.00;;;;;;4995357;28;20499;-62
2023/12/08 11:55:12;;;;;;;23.00;9.93;;;5.60;98.00;;;;;;4995395;28;20458;-62
2023/12/08 11:57:42;;;;;;;28.00;10.63;;;5.80;98.00;;;;;;4995215;28;20495;-62
2023/12/08 12:00:11;;;;;;;27.50;11.40;;;5.80;98.00;;;;;;4995220;28;20453;-62
2023/12/08 12:02:43;;;;;;;26.33;11.50;;;5.80;98.00;;;;;;4995179;28;20452;-62
2023/12/08 12:05:11;;;;;;;28.97;11.33;;;5.70;98.00;;;;;;4977835;28;20461;-62
2023/12/08 12:07:39;;;;;;;23.70;10.50;;;5.70;98.00;;;;;;4995266;28;20487;-62
2023/12/08 12:10:10;;;;;;;22.13;9.63;;;5.60;98.00;;;;;;4995335;28;20461;-62
2023/12/08 12:12:41;;;;;;;26.90;10.80;;;5.70;98.00;;;;;;4995196;28;20604;-62
2023/12/08 12:15:11;;;;;;;24.93;9.97;;;5.90;98.00;;;;;;4995395;28;20545;-62
2023/12/08 12:17:39;;;;;;;23.60;9.73;;;5.90;98.00;;;;;;4977400;28;20496;-62
2023/12/08 12:20:08;;;;;;;29.73;10.10;;;5.90;98.00;;;;;;4994971;28;20550;-62
2023/12/08 12:22:35;;;;;;;20.10;9.50;;;5.80;98.00;;;;;;4994798;28;20489;-62
2023/12/08 12:25:02;;;;;;;25.70;9.80;;;5.80;98.00;;;;;;4995155;28;20484;-63
2023/12/08 12:27:29;;;;;;;25.30;9.60;;;5.80;98.00;;;;;;4995014;28;20859;-61
2023/12/08 12:29:57;;;;;;;27.13;11.00;;;5.80;98.00;;;;;;4977214;28;20455;-62
2023/12/08 12:32:26;;;;;;;27.10;11.37;;;5.80;98.00;;;;;;4977202;28;20553;-61
2023/12/08 12:34:54;;;;;;;25.97;10.77;;;5.90;98.00;;;;;;4994579;28;20459;-62
2023/12/08 12:37:21;;;;;;;30.27;11.20;;;5.80;98.00;;;;;;4994552;28;20538;-61
2023/12/08 12:39:48;;;;;;;29.17;10.27;;;5.80;98.00;;;;;;4994055;28;20460;-61
2023/12/08 12:42:15;;;;;;;24.30;10.00;;;5.80;98.00;;;;;;4994188;28;20451;-62
2023/12/08 12:44:44;;;;;;;31.40;12.40;;;5.70;98.00;;;;;;4994316;28;20463;-62
2023/12/08 12:47:13;;;;;;;29.27;10.30;;;5.80;98.00;;;;;;4994453;28;20456;-62
2023/12/08 12:49:59;;;;;;;29.83;10.37;;;5.90;98.00;;;;;;4994248;28;20507;-62
2023/12/08 12:52:28;;;;;;;25.40;10.67;;;5.90;98.00;;;;;;4994080;28;20454;-62